sensor_id;sensor_type;location;lat;lon;timestamp;P1;durP1;ratioP1;P2;durP2;ratioP2
18146;SDS011;9199;48.832;9.182;2022-08-23T00:01:52;7.90;;;3.90;;
18146;SDS011;9199;48.832;9.182;2022-08-23T00:04:22;6.93;;;3.88;;
18146;SDS011;9199;48.832;9.182;2022-08-23T00:06:51;6.63;;;3.85;;
18146;SDS011;9199;48.832;9.182;2022-08-23T00:09:21;6.97;;;3.73;;
18146;SDS011;9199;48.832;9.182;2022-08-23T00:11:50;6.80;;;3.90;;
18146;SDS011;9199;48.832;9.182;2022-08-23T00:14:21;8.07;;;4.10;;
18146;SDS011;9199;48.832;9.182;2022-08-23T00:16:55;6.85;;;3.67;;
18146;SDS011;9199;48.832;9.182;2022-08-23T00:19:23;7.32;;;3.83;;
18146;SDS011;9199;48.832;9.182;2022-08-23T00:21:51;7.43;;;3.97;;
18146;SDS011;9199;48.832;9.182;2022-08-23T00:24:20;7.50;;;4.60;;
18146;SDS011;9199;48.832;9.182;2022-08-23T00:26:57;8.82;;;4.22;;
18146;SDS011;9199;48.832;9.182;2022-08-23T00:29:28;7.50;;;3.28;;
18146;SDS011;9199;48.832;9.182;2022-08-23T00:32:00;6.57;;;3.47;;
18146;SDS011;9199;48.832;9.182;2022-08-23T00:34:27;6.53;;;3.53;;
18146;SDS011;9199;48.832;9.182;2022-08-23T00:36:54;7.85;;;3.38;;
18146;SDS011;9199;48.832;9.182;2022-08-23T00:39:22;6.75;;;3.80;;
18146;SDS011;9199;48.832;9.182;2022-08-23T00:41:49;6.78;;;3.92;;
18146;SDS011;9199;48.832;9.182;2022-08-23T00:44:17;7.60;;;3.92;;
18146;SDS011;9199;48.832;9.182;2022-08-23T00:47:06;6.43;;;3.73;;
18146;SDS011;9199;48.832;9.182;2022-08-23T00:49:53;8.70;;;3.95;;
18146;SDS011;9199;48.832;9.182;2022-08-23T00:52:26;7.10;;;3.45;;
18146;SDS011;9199;48.832;9.182;2022-08-23T00:54:57;8.25;;;3.65;;
18146;SDS011;9199;48.832;9.182;2022-08-23T00:57:25;7.38;;;3.78;;
18146;SDS011;9199;48.832;9.182;2022-08-23T00:59:52;8.43;;;3.43;;
18146;SDS011;9199;48.832;9.182;2022-08-23T01:02:21;8.45;;;3.70;;
18146;SDS011;9199;48.832;9.182;2022-08-23T01:04:49;7.53;;;3.50;;
18146;SDS011;9199;48.832;9.182;2022-08-23T01:07:22;7.10;;;3.60;;
18146;SDS011;9199;48.832;9.182;2022-08-23T01:09:56;7.55;;;3.67;;
18146;SDS011;9199;48.832;9.182;2022-08-23T01:12:27;6.73;;;3.60;;
18146;SDS011;9199;48.832;9.182;2022-08-23T01:14:59;6.22;;;3.63;;
18146;SDS011;9199;48.832;9.182;2022-08-23T01:17:31;7.05;;;3.45;;
18146;SDS011;9199;48.832;9.182;2022-08-23T01:20:04;6.28;;;3.42;;
18146;SDS011;9199;48.832;9.182;2022-08-23T01:22:34;6.05;;;3.63;;
18146;SDS011;9199;48.832;9.182;2022-08-23T01:25:08;6.80;;;3.60;;
18146;SDS011;9199;48.832;9.182;2022-08-23T01:27:38;7.65;;;3.90;;
18146;SDS011;9199;48.832;9.182;2022-08-23T01:30:08;7.25;;;3.70;;
18146;SDS011;9199;48.832;9.182;2022-08-23T01:32:39;8.32;;;3.85;;
18146;SDS011;9199;48.832;9.182;2022-08-23T01:35:09;7.50;;;4.32;;
18146;SDS011;9199;48.832;9.182;2022-08-23T01:37:38;8.03;;;4.00;;
18146;SDS011;9199;48.832;9.182;2022-08-23T01:40:07;7.75;;;4.28;;
18146;SDS011;9199;48.832;9.182;2022-08-23T01:42:34;8.32;;;3.88;;
18146;SDS011;9199;48.832;9.182;2022-08-23T01:45:04;8.05;;;3.97;;
18146;SDS011;9199;48.832;9.182;2022-08-23T01:47:32;7.00;;;3.92;;
18146;SDS011;9199;48.832;9.182;2022-08-23T01:49:58;6.40;;;4.10;;
18146;SDS011;9199;48.832;9.182;2022-08-23T01:52:25;7.15;;;4.18;;
18146;SDS011;9199;48.832;9.182;2022-08-23T01:54:52;8.73;;;4.28;;
18146;SDS011;9199;48.832;9.182;2022-08-23T01:57:23;7.03;;;4.45;;
18146;SDS011;9199;48.832;9.182;2022-08-23T01:59:49;7.07;;;4.15;;
18146;SDS011;9199;48.832;9.182;2022-08-23T02:02:16;8.73;;;4.07;;
18146;SDS011;9199;48.832;9.182;2022-08-23T02:04:43;7.25;;;4.50;;
18146;SDS011;9199;48.832;9.182;2022-08-23T02:07:10;7.57;;;4.50;;
18146;SDS011;9199;48.832;9.182;2022-08-23T02:09:37;7.72;;;4.25;;
18146;SDS011;9199;48.832;9.182;2022-08-23T02:12:04;10.60;;;4.50;;
18146;SDS011;9199;48.832;9.182;2022-08-23T02:14:32;9.33;;;4.43;;
18146;SDS011;9199;48.832;9.182;2022-08-23T02:17:01;9.20;;;4.35;;
18146;SDS011;9199;48.832;9.182;2022-08-23T02:19:28;9.43;;;4.05;;
18146;SDS011;9199;48.832;9.182;2022-08-23T02:21:56;7.15;;;4.13;;
18146;SDS011;9199;48.832;9.182;2022-08-23T02:24:23;7.32;;;4.35;;
18146;SDS011;9199;48.832;9.182;2022-08-23T02:26:51;7.73;;;4.53;;
18146;SDS011;9199;48.832;9.182;2022-08-23T02:29:22;7.50;;;4.40;;
18146;SDS011;9199;48.832;9.182;2022-08-23T02:31:54;8.40;;;4.40;;
18146;SDS011;9199;48.832;9.182;2022-08-23T02:34:21;7.47;;;4.20;;
18146;SDS011;9199;48.832;9.182;2022-08-23T02:36:48;7.70;;;3.95;;
18146;SDS011;9199;48.832;9.182;2022-08-23T02:39:15;6.90;;;4.27;;
18146;SDS011;9199;48.832;9.182;2022-08-23T02:41:43;6.65;;;4.22;;
18146;SDS011;9199;48.832;9.182;2022-08-23T02:44:10;10.02;;;4.00;;
18146;SDS011;9199;48.832;9.182;2022-08-23T02:46:37;9.45;;;4.40;;
18146;SDS011;9199;48.832;9.182;2022-08-23T02:49:06;6.78;;;3.90;;
18146;SDS011;9199;48.832;9.182;2022-08-23T02:51:33;7.40;;;4.57;;
18146;SDS011;9199;48.832;9.182;2022-08-23T02:54:00;7.80;;;4.45;;
18146;SDS011;9199;48.832;9.182;2022-08-23T02:56:26;7.88;;;4.57;;
18146;SDS011;9199;48.832;9.182;2022-08-23T02:58:53;7.55;;;4.72;;
18146;SDS011;9199;48.832;9.182;2022-08-23T03:01:21;9.38;;;4.82;;
18146;SDS011;9199;48.832;9.182;2022-08-23T03:03:50;8.77;;;4.90;;
18146;SDS011;9199;48.832;9.182;2022-08-23T03:06:18;6.57;;;4.47;;
18146;SDS011;9199;48.832;9.182;2022-08-23T03:08:44;6.90;;;4.43;;
18146;SDS011;9199;48.832;9.182;2022-08-23T03:11:12;7.00;;;4.45;;
18146;SDS011;9199;48.832;9.182;2022-08-23T03:13:41;8.23;;;4.40;;
18146;SDS011;9199;48.832;9.182;2022-08-23T03:16:10;8.53;;;4.53;;
18146;SDS011;9199;48.832;9.182;2022-08-23T03:18:38;7.35;;;4.70;;
18146;SDS011;9199;48.832;9.182;2022-08-23T03:21:06;8.48;;;4.90;;
18146;SDS011;9199;48.832;9.182;2022-08-23T03:23:36;7.43;;;4.57;;
18146;SDS011;9199;48.832;9.182;2022-08-23T03:26:04;9.18;;;4.97;;
18146;SDS011;9199;48.832;9.182;2022-08-23T03:28:33;7.30;;;4.37;;
18146;SDS011;9199;48.832;9.182;2022-08-23T03:31:01;8.00;;;5.03;;
18146;SDS011;9199;48.832;9.182;2022-08-23T03:33:28;7.95;;;4.38;;
18146;SDS011;9199;48.832;9.182;2022-08-23T03:35:56;7.75;;;4.75;;
18146;SDS011;9199;48.832;9.182;2022-08-23T03:38:24;8.55;;;4.63;;
18146;SDS011;9199;48.832;9.182;2022-08-23T03:40:53;9.40;;;5.20;;
18146;SDS011;9199;48.832;9.182;2022-08-23T03:43:20;9.32;;;4.88;;
18146;SDS011;9199;48.832;9.182;2022-08-23T03:45:47;8.93;;;5.20;;
18146;SDS011;9199;48.832;9.182;2022-08-23T03:48:14;8.57;;;4.90;;
18146;SDS011;9199;48.832;9.182;2022-08-23T03:50:42;8.55;;;4.80;;
18146;SDS011;9199;48.832;9.182;2022-08-23T03:53:09;8.27;;;5.03;;
18146;SDS011;9199;48.832;9.182;2022-08-23T03:55:37;9.38;;;5.00;;
18146;SDS011;9199;48.832;9.182;2022-08-23T03:58:05;10.40;;;5.25;;
18146;SDS011;9199;48.832;9.182;2022-08-23T04:00:32;9.35;;;5.63;;
18146;SDS011;9199;48.832;9.182;2022-08-23T04:02:59;9.27;;;5.40;;
18146;SDS011;9199;48.832;9.182;2022-08-23T04:05:26;7.80;;;4.70;;
18146;SDS011;9199;48.832;9.182;2022-08-23T04:07:52;14.35;;;4.78;;
18146;SDS011;9199;48.832;9.182;2022-08-23T04:10:19;9.35;;;5.07;;
18146;SDS011;9199;48.832;9.182;2022-08-23T04:12:46;10.38;;;5.32;;
18146;SDS011;9199;48.832;9.182;2022-08-23T04:15:15;13.07;;;5.07;;
18146;SDS011;9199;48.832;9.182;2022-08-23T04:17:42;9.50;;;5.27;;
18146;SDS011;9199;48.832;9.182;2022-08-23T04:20:09;8.05;;;5.30;;
18146;SDS011;9199;48.832;9.182;2022-08-23T04:22:36;8.48;;;5.30;;
18146;SDS011;9199;48.832;9.182;2022-08-23T04:25:03;8.98;;;5.43;;
18146;SDS011;9199;48.832;9.182;2022-08-23T04:27:30;11.13;;;6.25;;
18146;SDS011;9199;48.832;9.182;2022-08-23T04:29:57;8.50;;;5.03;;
18146;SDS011;9199;48.832;9.182;2022-08-23T04:32:25;10.07;;;5.22;;
18146;SDS011;9199;48.832;9.182;2022-08-23T04:34:52;7.43;;;4.57;;
18146;SDS011;9199;48.832;9.182;2022-08-23T04:37:19;8.18;;;4.95;;
18146;SDS011;9199;48.832;9.182;2022-08-23T04:39:45;8.70;;;4.97;;
18146;SDS011;9199;48.832;9.182;2022-08-23T04:42:30;8.77;;;5.30;;
18146;SDS011;9199;48.832;9.182;2022-08-23T04:44:57;8.88;;;5.45;;
18146;SDS011;9199;48.832;9.182;2022-08-23T04:47:26;8.25;;;5.22;;
18146;SDS011;9199;48.832;9.182;2022-08-23T04:49:53;8.60;;;5.20;;
18146;SDS011;9199;48.832;9.182;2022-08-23T04:52:20;9.50;;;5.50;;
18146;SDS011;9199;48.832;9.182;2022-08-23T04:54:47;7.53;;;5.30;;
18146;SDS011;9199;48.832;9.182;2022-08-23T04:57:13;7.30;;;5.07;;
18146;SDS011;9199;48.832;9.182;2022-08-23T04:59:40;7.30;;;4.88;;
18146;SDS011;9199;48.832;9.182;2022-08-23T05:02:07;8.45;;;4.93;;
18146;SDS011;9199;48.832;9.182;2022-08-23T05:04:36;9.63;;;5.63;;
18146;SDS011;9199;48.832;9.182;2022-08-23T05:07:02;8.83;;;5.00;;
18146;SDS011;9199;48.832;9.182;2022-08-23T05:09:29;9.50;;;5.55;;
18146;SDS011;9199;48.832;9.182;2022-08-23T05:11:56;8.13;;;5.53;;
18146;SDS011;9199;48.832;9.182;2022-08-23T05:14:23;7.85;;;5.15;;
18146;SDS011;9199;48.832;9.182;2022-08-23T05:16:49;8.45;;;5.05;;
18146;SDS011;9199;48.832;9.182;2022-08-23T05:19:16;9.20;;;5.10;;
18146;SDS011;9199;48.832;9.182;2022-08-23T05:21:44;7.97;;;5.00;;
18146;SDS011;9199;48.832;9.182;2022-08-23T05:24:11;8.60;;;5.13;;
18146;SDS011;9199;48.832;9.182;2022-08-23T05:26:38;9.45;;;5.13;;
18146;SDS011;9199;48.832;9.182;2022-08-23T05:29:05;7.30;;;5.00;;
18146;SDS011;9199;48.832;9.182;2022-08-23T05:31:32;9.03;;;5.00;;
18146;SDS011;9199;48.832;9.182;2022-08-23T05:33:59;9.23;;;5.13;;
18146;SDS011;9199;48.832;9.182;2022-08-23T05:36:25;9.07;;;5.15;;
18146;SDS011;9199;48.832;9.182;2022-08-23T05:38:54;8.30;;;5.03;;
18146;SDS011;9199;48.832;9.182;2022-08-23T05:41:20;9.07;;;5.57;;
18146;SDS011;9199;48.832;9.182;2022-08-23T05:43:47;8.53;;;5.13;;
18146;SDS011;9199;48.832;9.182;2022-08-23T05:46:15;8.95;;;5.18;;
18146;SDS011;9199;48.832;9.182;2022-08-23T05:48:44;9.50;;;5.00;;
18146;SDS011;9199;48.832;9.182;2022-08-23T05:51:13;9.82;;;4.90;;
18146;SDS011;9199;48.832;9.182;2022-08-23T05:53:42;9.48;;;4.97;;
18146;SDS011;9199;48.832;9.182;2022-08-23T05:56:13;8.47;;;4.80;;
18146;SDS011;9199;48.832;9.182;2022-08-23T05:58:41;11.77;;;5.15;;
18146;SDS011;9199;48.832;9.182;2022-08-23T06:01:09;8.90;;;4.93;;
18146;SDS011;9199;48.832;9.182;2022-08-23T06:03:36;9.50;;;4.28;;
18146;SDS011;9199;48.832;9.182;2022-08-23T06:06:03;8.25;;;4.30;;
18146;SDS011;9199;48.832;9.182;2022-08-23T06:08:31;6.70;;;3.63;;
18146;SDS011;9199;48.832;9.182;2022-08-23T06:10:59;8.48;;;3.95;;
18146;SDS011;9199;48.832;9.182;2022-08-23T06:13:28;9.00;;;4.22;;
18146;SDS011;9199;48.832;9.182;2022-08-23T06:15:55;10.05;;;3.83;;
18146;SDS011;9199;48.832;9.182;2022-08-23T06:18:22;11.57;;;4.53;;
18146;SDS011;9199;48.832;9.182;2022-08-23T06:20:57;7.70;;;4.00;;
18146;SDS011;9199;48.832;9.182;2022-08-23T06:23:26;8.40;;;3.92;;
18146;SDS011;9199;48.832;9.182;2022-08-23T06:25:52;11.07;;;4.20;;
18146;SDS011;9199;48.832;9.182;2022-08-23T06:28:19;10.57;;;4.20;;
18146;SDS011;9199;48.832;9.182;2022-08-23T06:30:47;8.32;;;3.70;;
18146;SDS011;9199;48.832;9.182;2022-08-23T06:33:14;7.37;;;3.67;;
18146;SDS011;9199;48.832;9.182;2022-08-23T06:35:41;9.20;;;3.58;;
18146;SDS011;9199;48.832;9.182;2022-08-23T06:38:08;9.20;;;3.40;;
18146;SDS011;9199;48.832;9.182;2022-08-23T06:40:35;7.93;;;3.90;;
18146;SDS011;9199;48.832;9.182;2022-08-23T06:43:02;9.40;;;3.53;;
18146;SDS011;9199;48.832;9.182;2022-08-23T06:45:29;10.53;;;3.63;;
18146;SDS011;9199;48.832;9.182;2022-08-23T06:47:59;8.75;;;3.47;;
18146;SDS011;9199;48.832;9.182;2022-08-23T06:50:25;7.30;;;3.22;;
18146;SDS011;9199;48.832;9.182;2022-08-23T06:52:52;8.20;;;3.60;;
18146;SDS011;9199;48.832;9.182;2022-08-23T06:55:19;8.00;;;3.33;;
18146;SDS011;9199;48.832;9.182;2022-08-23T06:57:46;10.40;;;3.53;;
18146;SDS011;9199;48.832;9.182;2022-08-23T07:00:13;10.85;;;3.65;;
18146;SDS011;9199;48.832;9.182;2022-08-23T07:02:40;11.00;;;3.78;;
18146;SDS011;9199;48.832;9.182;2022-08-23T07:05:08;8.98;;;3.30;;
18146;SDS011;9199;48.832;9.182;2022-08-23T07:07:35;7.97;;;3.67;;
18146;SDS011;9199;48.832;9.182;2022-08-23T07:10:02;7.97;;;3.30;;
18146;SDS011;9199;48.832;9.182;2022-08-23T07:12:30;9.75;;;3.55;;
18146;SDS011;9199;48.832;9.182;2022-08-23T07:14:56;7.05;;;3.58;;
18146;SDS011;9199;48.832;9.182;2022-08-23T07:17:23;7.38;;;3.30;;
18146;SDS011;9199;48.832;9.182;2022-08-23T07:19:50;10.20;;;3.40;;
18146;SDS011;9199;48.832;9.182;2022-08-23T07:22:18;7.47;;;3.47;;
18146;SDS011;9199;48.832;9.182;2022-08-23T07:24:45;7.90;;;2.97;;
18146;SDS011;9199;48.832;9.182;2022-08-23T07:27:12;7.03;;;3.45;;
18146;SDS011;9199;48.832;9.182;2022-08-23T07:29:38;10.73;;;3.78;;
18146;SDS011;9199;48.832;9.182;2022-08-23T07:32:06;8.40;;;3.55;;
18146;SDS011;9199;48.832;9.182;2022-08-23T07:34:33;6.50;;;3.33;;
18146;SDS011;9199;48.832;9.182;2022-08-23T07:37:00;6.47;;;3.20;;
18146;SDS011;9199;48.832;9.182;2022-08-23T07:39:28;6.80;;;3.28;;
18146;SDS011;9199;48.832;9.182;2022-08-23T07:41:57;7.85;;;3.20;;
18146;SDS011;9199;48.832;9.182;2022-08-23T07:44:24;7.72;;;3.10;;
18146;SDS011;9199;48.832;9.182;2022-08-23T07:46:51;7.03;;;3.20;;
18146;SDS011;9199;48.832;9.182;2022-08-23T07:49:18;5.45;;;2.97;;
18146;SDS011;9199;48.832;9.182;2022-08-23T07:51:45;6.93;;;2.97;;
18146;SDS011;9199;48.832;9.182;2022-08-23T07:54:14;7.55;;;2.70;;
18146;SDS011;9199;48.832;9.182;2022-08-23T07:56:43;5.15;;;2.65;;
18146;SDS011;9199;48.832;9.182;2022-08-23T07:59:10;6.20;;;2.80;;
18146;SDS011;9199;48.832;9.182;2022-08-23T08:01:37;5.65;;;2.40;;
18146;SDS011;9199;48.832;9.182;2022-08-23T08:04:08;6.15;;;2.75;;
18146;SDS011;9199;48.832;9.182;2022-08-23T08:06:38;5.10;;;2.65;;
18146;SDS011;9199;48.832;9.182;2022-08-23T08:09:06;5.43;;;2.70;;
18146;SDS011;9199;48.832;9.182;2022-08-23T08:11:33;6.73;;;2.67;;
18146;SDS011;9199;48.832;9.182;2022-08-23T08:14:02;5.13;;;2.63;;
18146;SDS011;9199;48.832;9.182;2022-08-23T08:16:31;7.47;;;2.60;;
18146;SDS011;9199;48.832;9.182;2022-08-23T08:19:00;6.25;;;2.70;;
18146;SDS011;9199;48.832;9.182;2022-08-23T08:21:29;8.02;;;2.90;;
18146;SDS011;9199;48.832;9.182;2022-08-23T08:23:56;5.20;;;2.60;;
18146;SDS011;9199;48.832;9.182;2022-08-23T08:26:23;5.07;;;2.60;;
18146;SDS011;9199;48.832;9.182;2022-08-23T08:28:51;5.95;;;2.97;;
18146;SDS011;9199;48.832;9.182;2022-08-23T08:31:21;7.38;;;2.85;;
18146;SDS011;9199;48.832;9.182;2022-08-23T08:33:49;5.78;;;2.72;;
18146;SDS011;9199;48.832;9.182;2022-08-23T08:36:26;6.57;;;2.57;;
18146;SDS011;9199;48.832;9.182;2022-08-23T08:38:59;5.65;;;2.65;;
18146;SDS011;9199;48.832;9.182;2022-08-23T08:41:31;6.05;;;2.50;;
18146;SDS011;9199;48.832;9.182;2022-08-23T08:44:11;6.53;;;2.47;;
18146;SDS011;9199;48.832;9.182;2022-08-23T08:46:49;6.95;;;2.83;;
18146;SDS011;9199;48.832;9.182;2022-08-23T08:49:21;4.80;;;2.57;;
18146;SDS011;9199;48.832;9.182;2022-08-23T08:51:57;7.75;;;2.97;;
18146;SDS011;9199;48.832;9.182;2022-08-23T08:54:30;7.15;;;2.70;;
18146;SDS011;9199;48.832;9.182;2022-08-23T08:56:58;6.22;;;2.60;;
18146;SDS011;9199;48.832;9.182;2022-08-23T08:59:27;5.57;;;2.60;;
18146;SDS011;9199;48.832;9.182;2022-08-23T09:02:00;6.43;;;2.80;;
18146;SDS011;9199;48.832;9.182;2022-08-23T09:04:27;5.68;;;2.38;;
18146;SDS011;9199;48.832;9.182;2022-08-23T09:06:56;5.18;;;2.63;;
18146;SDS011;9199;48.832;9.182;2022-08-23T09:09:33;5.30;;;2.35;;
18146;SDS011;9199;48.832;9.182;2022-08-23T09:12:23;5.55;;;2.30;;
18146;SDS011;9199;48.832;9.182;2022-08-23T09:15:02;5.03;;;2.23;;
18146;SDS011;9199;48.832;9.182;2022-08-23T09:17:43;5.18;;;2.58;;
18146;SDS011;9199;48.832;9.182;2022-08-23T09:20:16;5.28;;;2.20;;
18146;SDS011;9199;48.832;9.182;2022-08-23T09:22:46;5.55;;;2.40;;
18146;SDS011;9199;48.832;9.182;2022-08-23T09:25:15;5.88;;;2.40;;
18146;SDS011;9199;48.832;9.182;2022-08-23T09:27:43;5.83;;;2.63;;
18146;SDS011;9199;48.832;9.182;2022-08-23T09:30:11;4.63;;;2.50;;
18146;SDS011;9199;48.832;9.182;2022-08-23T09:32:41;6.90;;;2.50;;
18146;SDS011;9199;48.832;9.182;2022-08-23T09:35:14;5.22;;;2.10;;
18146;SDS011;9199;48.832;9.182;2022-08-23T09:37:47;6.15;;;2.30;;
18146;SDS011;9199;48.832;9.182;2022-08-23T09:40:24;4.67;;;2.23;;
18146;SDS011;9199;48.832;9.182;2022-08-23T09:43:04;5.13;;;2.35;;
18146;SDS011;9199;48.832;9.182;2022-08-23T09:45:39;6.45;;;2.47;;
18146;SDS011;9199;48.832;9.182;2022-08-23T09:48:12;7.03;;;2.40;;
18146;SDS011;9199;48.832;9.182;2022-08-23T09:51:01;4.70;;;2.15;;
18146;SDS011;9199;48.832;9.182;2022-08-23T09:53:31;5.10;;;2.00;;
18146;SDS011;9199;48.832;9.182;2022-08-23T09:56:08;5.60;;;2.00;;
18146;SDS011;9199;48.832;9.182;2022-08-23T09:58:39;5.55;;;2.13;;
18146;SDS011;9199;48.832;9.182;2022-08-23T10:01:09;4.10;;;1.83;;
18146;SDS011;9199;48.832;9.182;2022-08-23T10:03:40;3.92;;;1.98;;
18146;SDS011;9199;48.832;9.182;2022-08-23T10:06:08;4.40;;;2.10;;
18146;SDS011;9199;48.832;9.182;2022-08-23T10:08:49;5.82;;;2.13;;
18146;SDS011;9199;48.832;9.182;2022-08-23T10:11:17;4.70;;;2.28;;
18146;SDS011;9199;48.832;9.182;2022-08-23T10:13:49;4.53;;;2.05;;
18146;SDS011;9199;48.832;9.182;2022-08-23T10:16:20;4.43;;;2.20;;
18146;SDS011;9199;48.832;9.182;2022-08-23T10:18:56;3.73;;;2.17;;
18146;SDS011;9199;48.832;9.182;2022-08-23T10:21:31;4.88;;;2.05;;
18146;SDS011;9199;48.832;9.182;2022-08-23T10:24:12;3.78;;;2.10;;
18146;SDS011;9199;48.832;9.182;2022-08-23T10:27:01;6.45;;;2.40;;
18146;SDS011;9199;48.832;9.182;2022-08-23T10:29:57;5.07;;;2.30;;
18146;SDS011;9199;48.832;9.182;2022-08-23T10:32:30;5.40;;;2.10;;
18146;SDS011;9199;48.832;9.182;2022-08-23T10:35:18;7.05;;;2.15;;
18146;SDS011;9199;48.832;9.182;2022-08-23T10:37:54;4.78;;;2.30;;
18146;SDS011;9199;48.832;9.182;2022-08-23T10:40:36;3.50;;;2.20;;
18146;SDS011;9199;48.832;9.182;2022-08-23T10:43:12;5.70;;;2.20;;
18146;SDS011;9199;48.832;9.182;2022-08-23T10:45:41;6.77;;;2.70;;
18146;SDS011;9199;48.832;9.182;2022-08-23T10:48:21;6.05;;;2.47;;
18146;SDS011;9199;48.832;9.182;2022-08-23T10:50:55;4.30;;;2.40;;
18146;SDS011;9199;48.832;9.182;2022-08-23T10:53:36;6.53;;;2.50;;
18146;SDS011;9199;48.832;9.182;2022-08-23T10:56:10;4.75;;;2.33;;
18146;SDS011;9199;48.832;9.182;2022-08-23T10:58:42;5.03;;;2.30;;
18146;SDS011;9199;48.832;9.182;2022-08-23T11:01:13;5.75;;;2.30;;
18146;SDS011;9199;48.832;9.182;2022-08-23T11:03:46;4.93;;;2.20;;
18146;SDS011;9199;48.832;9.182;2022-08-23T11:06:24;4.93;;;2.20;;
18146;SDS011;9199;48.832;9.182;2022-08-23T11:09:09;5.75;;;2.28;;
18146;SDS011;9199;48.832;9.182;2022-08-23T11:12:04;4.23;;;2.20;;
18146;SDS011;9199;48.832;9.182;2022-08-23T11:14:39;3.90;;;2.25;;
18146;SDS011;9199;48.832;9.182;2022-08-23T11:17:08;5.30;;;2.53;;
18146;SDS011;9199;48.832;9.182;2022-08-23T11:19:47;7.88;;;2.50;;
18146;SDS011;9199;48.832;9.182;2022-08-23T11:22:19;4.15;;;2.30;;
18146;SDS011;9199;48.832;9.182;2022-08-23T11:24:49;4.27;;;2.20;;
18146;SDS011;9199;48.832;9.182;2022-08-23T11:27:24;4.13;;;1.92;;
18146;SDS011;9199;48.832;9.182;2022-08-23T11:29:56;4.90;;;2.10;;
18146;SDS011;9199;48.832;9.182;2022-08-23T11:32:30;4.00;;;1.92;;
18146;SDS011;9199;48.832;9.182;2022-08-23T11:35:07;4.13;;;2.10;;
18146;SDS011;9199;48.832;9.182;2022-08-23T11:37:51;5.70;;;2.40;;
18146;SDS011;9199;48.832;9.182;2022-08-23T11:40:39;5.47;;;1.95;;
18146;SDS011;9199;48.832;9.182;2022-08-23T11:43:23;5.72;;;2.05;;
18146;SDS011;9199;48.832;9.182;2022-08-23T11:45:53;5.05;;;2.30;;
18146;SDS011;9199;48.832;9.182;2022-08-23T11:48:41;4.50;;;2.22;;
18146;SDS011;9199;48.832;9.182;2022-08-23T11:51:16;3.63;;;2.00;;
18146;SDS011;9199;48.832;9.182;2022-08-23T11:54:07;4.35;;;2.45;;
18146;SDS011;9199;48.832;9.182;2022-08-23T11:56:51;4.50;;;2.22;;
18146;SDS011;9199;48.832;9.182;2022-08-23T11:59:42;4.03;;;2.10;;
18146;SDS011;9199;48.832;9.182;2022-08-23T12:05:38;5.07;;;2.20;;
18146;SDS011;9199;48.832;9.182;2022-08-23T12:08:27;5.10;;;2.40;;
18146;SDS011;9199;48.832;9.182;2022-08-23T12:11:14;4.25;;;2.30;;
18146;SDS011;9199;48.832;9.182;2022-08-23T12:13:50;4.40;;;2.30;;
18146;SDS011;9199;48.832;9.182;2022-08-23T12:16:28;5.25;;;2.47;;
18146;SDS011;9199;48.832;9.182;2022-08-23T12:19:09;4.57;;;2.30;;
18146;SDS011;9199;48.832;9.182;2022-08-23T12:21:48;6.97;;;2.70;;
18146;SDS011;9199;48.832;9.182;2022-08-23T12:24:23;4.57;;;2.17;;
18146;SDS011;9199;48.832;9.182;2022-08-23T12:26:58;4.38;;;2.20;;
18146;SDS011;9199;48.832;9.182;2022-08-23T12:32:18;5.53;;;2.30;;
18146;SDS011;9199;48.832;9.182;2022-08-23T12:34:58;3.95;;;2.30;;
18146;SDS011;9199;48.832;9.182;2022-08-23T12:37:33;4.65;;;2.20;;
18146;SDS011;9199;48.832;9.182;2022-08-23T12:40:07;5.40;;;2.30;;
18146;SDS011;9199;48.832;9.182;2022-08-23T12:42:39;6.03;;;2.38;;
18146;SDS011;9199;48.832;9.182;2022-08-23T12:45:11;4.60;;;2.40;;
18146;SDS011;9199;48.832;9.182;2022-08-23T12:47:41;6.25;;;2.50;;
18146;SDS011;9199;48.832;9.182;2022-08-23T12:50:15;4.97;;;2.55;;
18146;SDS011;9199;48.832;9.182;2022-08-23T12:52:54;5.03;;;2.63;;
18146;SDS011;9199;48.832;9.182;2022-08-23T12:55:27;5.03;;;2.90;;
18146;SDS011;9199;48.832;9.182;2022-08-23T12:57:57;6.27;;;2.80;;
18146;SDS011;9199;48.832;9.182;2022-08-23T13:00:27;3.63;;;2.58;;
18146;SDS011;9199;48.832;9.182;2022-08-23T13:02:59;3.53;;;2.42;;
18146;SDS011;9199;48.832;9.182;2022-08-23T13:05:33;4.88;;;2.47;;
18146;SDS011;9199;48.832;9.182;2022-08-23T13:08:05;4.72;;;2.95;;
18146;SDS011;9199;48.832;9.182;2022-08-23T13:10:35;6.93;;;2.80;;
18146;SDS011;9199;48.832;9.182;2022-08-23T13:13:08;4.25;;;2.60;;
18146;SDS011;9199;48.832;9.182;2022-08-23T13:15:39;6.22;;;2.78;;
18146;SDS011;9199;48.832;9.182;2022-08-23T13:18:24;4.68;;;3.00;;
18146;SDS011;9199;48.832;9.182;2022-08-23T13:23:54;4.50;;;2.60;;
18146;SDS011;9199;48.832;9.182;2022-08-23T13:26:23;4.50;;;2.70;;
18146;SDS011;9199;48.832;9.182;2022-08-23T13:29:04;4.68;;;2.70;;
18146;SDS011;9199;48.832;9.182;2022-08-23T13:31:52;4.60;;;2.70;;
18146;SDS011;9199;48.832;9.182;2022-08-23T13:34:30;4.03;;;2.50;;
18146;SDS011;9199;48.832;9.182;2022-08-23T13:37:03;4.73;;;2.43;;
18146;SDS011;9199;48.832;9.182;2022-08-23T13:39:42;4.60;;;2.38;;
18146;SDS011;9199;48.832;9.182;2022-08-23T13:42:12;5.30;;;2.40;;
18146;SDS011;9199;48.832;9.182;2022-08-23T13:44:40;4.40;;;2.30;;
18146;SDS011;9199;48.832;9.182;2022-08-23T13:47:17;5.55;;;2.50;;
18146;SDS011;9199;48.832;9.182;2022-08-23T13:49:50;4.33;;;2.60;;
18146;SDS011;9199;48.832;9.182;2022-08-23T13:52:17;5.60;;;2.60;;
18146;SDS011;9199;48.832;9.182;2022-08-23T13:54:44;4.38;;;2.80;;
18146;SDS011;9199;48.832;9.182;2022-08-23T13:57:11;4.75;;;2.70;;
18146;SDS011;9199;48.832;9.182;2022-08-23T13:59:47;5.13;;;2.67;;
18146;SDS011;9199;48.832;9.182;2022-08-23T14:02:16;4.07;;;2.20;;
18146;SDS011;9199;48.832;9.182;2022-08-23T14:04:45;4.28;;;2.20;;
18146;SDS011;9199;48.832;9.182;2022-08-23T14:07:12;5.03;;;2.20;;
18146;SDS011;9199;48.832;9.182;2022-08-23T14:09:40;5.20;;;2.22;;
18146;SDS011;9199;48.832;9.182;2022-08-23T14:12:11;4.75;;;2.50;;
18146;SDS011;9199;48.832;9.182;2022-08-23T14:14:42;5.87;;;2.40;;
18146;SDS011;9199;48.832;9.182;2022-08-23T14:17:09;3.45;;;2.50;;
18146;SDS011;9199;48.832;9.182;2022-08-23T14:19:37;3.63;;;2.50;;
18146;SDS011;9199;48.832;9.182;2022-08-23T14:22:04;5.38;;;2.63;;
18146;SDS011;9199;48.832;9.182;2022-08-23T14:24:31;5.38;;;2.53;;
18146;SDS011;9199;48.832;9.182;2022-08-23T14:26:58;4.37;;;2.63;;
18146;SDS011;9199;48.832;9.182;2022-08-23T14:29:26;4.30;;;2.67;;
18146;SDS011;9199;48.832;9.182;2022-08-23T14:31:55;3.80;;;2.42;;
18146;SDS011;9199;48.832;9.182;2022-08-23T14:34:23;5.82;;;2.40;;
18146;SDS011;9199;48.832;9.182;2022-08-23T14:36:51;4.25;;;2.30;;
18146;SDS011;9199;48.832;9.182;2022-08-23T14:39:18;5.53;;;2.10;;
18146;SDS011;9199;48.832;9.182;2022-08-23T14:41:45;3.63;;;2.08;;
18146;SDS011;9199;48.832;9.182;2022-08-23T14:44:13;4.70;;;2.00;;
18146;SDS011;9199;48.832;9.182;2022-08-23T14:46:40;4.82;;;2.00;;
18146;SDS011;9199;48.832;9.182;2022-08-23T14:49:09;5.30;;;1.98;;
18146;SDS011;9199;48.832;9.182;2022-08-23T14:51:37;3.63;;;2.00;;
18146;SDS011;9199;48.832;9.182;2022-08-23T14:54:06;3.88;;;2.10;;
18146;SDS011;9199;48.832;9.182;2022-08-23T14:56:36;5.47;;;2.25;;
18146;SDS011;9199;48.832;9.182;2022-08-23T14:59:03;5.20;;;2.03;;
18146;SDS011;9199;48.832;9.182;2022-08-23T15:01:30;4.10;;;2.00;;
18146;SDS011;9199;48.832;9.182;2022-08-23T15:03:56;4.10;;;2.00;;
18146;SDS011;9199;48.832;9.182;2022-08-23T15:06:26;6.28;;;1.95;;
18146;SDS011;9199;48.832;9.182;2022-08-23T15:08:53;4.28;;;2.00;;
18146;SDS011;9199;48.832;9.182;2022-08-23T15:11:20;4.72;;;2.30;;
18146;SDS011;9199;48.832;9.182;2022-08-23T15:13:48;4.82;;;2.20;;
18146;SDS011;9199;48.832;9.182;2022-08-23T15:16:15;4.57;;;2.10;;
18146;SDS011;9199;48.832;9.182;2022-08-23T15:18:44;4.97;;;2.13;;
18146;SDS011;9199;48.832;9.182;2022-08-23T15:21:13;6.13;;;2.42;;
18146;SDS011;9199;48.832;9.182;2022-08-23T15:23:42;3.55;;;1.90;;
18146;SDS011;9199;48.832;9.182;2022-08-23T15:26:10;6.05;;;1.90;;
18146;SDS011;9199;48.832;9.182;2022-08-23T15:28:38;5.83;;;1.90;;
18146;SDS011;9199;48.832;9.182;2022-08-23T15:31:05;3.72;;;1.98;;